Tiempo atmosférico en la estación meteorológica de Fuentes de Andalucía, Sevilla (165 m.)



Fecha
DESCASC
Temp. máxima en grados centígrados (hora)
DESCASC
Temp. mínima en grados centígrados (hora)
DESCASC
Temp. media en grados centígrados
DESCASC
Racha de viento máxima en m/sg (hora)
DESCASC
Velocidad máxima media en intervalos de 10 minutos(hora)
DESCASC
Precipitaciones diarias en mm
DESCASC
Precipitaciones de 00:00 a 06:00 en mm
DESCASC
Precipitaciones de 06:00 a 12:00 en mm
DESCASC
Precipitaciones de 12:00 a 18:00 en mm
DESCASC
Precipitaciones de 18:00 a 24:00 en mm
DESCASC
29-10-2020 27.5 (16:20) 12.4 (07:50) 19.9 8.89 (14:30) 4.44 (14:30) 0 0 0 0 0
28-10-2020 22.9 (16:20) 9.6 (07:50) 16.3 6.11 (12:00) 3.06 (12:30) 0 0 0 0 0
27-10-2020 19.7 (16:10) 8.1 (00:00) 13.9 5 (15:20) 2.5 (04:30) 0 0 0 0 0
26-10-2020 18.7 (15:20) 10.8 (00:00) 14.8 8.89 (00:50) 6.94 (01:00) 0 0 0 0 0
25-10-2020 20.5 (14:10) 10.9 (00:00) 15.7 17.22 (21:10) 13.33 (21:10) 1.2 0 0.2 0 1
24-10-2020 20.8 (17:40) 13.1 (00:00) 16.9 5.56 (17:20) 3.61 (23:30) 0 0 0 0 0
23-10-2020 21.1 (17:40) 12.2 (00:00) 16.7 8.06 (14:30) 4.17 (17:30) 0.4 0.2 0.2 0 0
22-10-2020 19.8 (16:00) 14.8 (00:00) 17.3 9.72 (15:40) 7.22 (15:40) 6.4 4.4 0.6 1.2 0.2
21-10-2020 22.2 (17:10) 16.6 (00:00) 19.4 13.06 (17:50) 9.17 (00:10) 0.8 0 0.2 0.6 0
20-10-2020 28.2 (15:10) 17 (00:00) 22.6 26.67 (22:00) 20.28 (22:00) 7.8 0 0 0 7.8
19-10-2020 30.9 (16:40) 14.6 (00:00) 22.8 11.39 (19:30) 8.33 (18:20) 0 0 0 0 0
18-10-2020 27.9 (17:40) 8.6 (00:00) 18.3 11.39 (11:10) 6.39 (11:10) 0 0 0 0 0
17-10-2020 23.8 (17:20) 9.5 (00:00) 16.6 5 (15:20) 4.17 (01:20) 0 0 0 0 0
16-10-2020 23.7 (16:50) 8.1 (00:00) 15.9 6.11 (17:00) 3.89 (23:59) 0 0 0 0 0
15-10-2020 23.3 (16:40) 10 (00:00) 16.6 7.5 (20:50) 5.28 (21:10) 0 0 0 0 0
14-10-2020 24 (17:20) 11.4 (00:00) 17.7 12.5 (15:10) 8.61 (15:10) 0 0 0 0 0
13-10-2020 27.7 (18:10) 10 (00:00) 18.9 7.22 (21:50) 5.28 (21:50) 0 0 0 0 0
12-10-2020 25.7 (17:20) 13.8 (00:00) 19.8 12.22 (13:00) 6.67 (13:00) 0 0 0 0 0
11-10-2020 29.3 (17:00) 15.8 (00:00) 22.5 7.22 (23:40) 5.56 (00:20) 0 0 0 0 0
10-10-2020 31.1 (15:40) 15.9 (00:00) 23.5 8.33 (20:20) 6.11 (20:20) 0 0 0 0 0
09-10-2020 -- (--) -- (--) -- -- (--) -- (--) -- -- 0 0 0
08-10-2020 33.5 (17:10) 15.6 (00:00) 24.6 9.17 (11:40) 5.28 (12:20) 0 0 0 0 0
07-10-2020 32.7 (16:50) 15.1 (00:00) 23.9 7.22 (12:00) 4.17 (23:59) 0 0 0 0 0
06-10-2020 28.7 (17:50) 12.5 (00:00) 20.6 5.83 (12:50) 2.78 (09:20) 0 0 0 0 0
05-10-2020 25.2 (17:30) 11.8 (00:00) 18.5 10 (16:30) 4.44 (17:10) 0 0 0 0 0
04-10-2020 24.4 (17:50) 11.6 (00:00) 18 11.39 (17:50) 9.17 (20:00) 0 0 0 0 0
03-10-2020 22.7 (17:50) 9.4 (00:00) 16.1 9.17 (15:30) 6.94 (00:50) 0 0 0 0 0
02-10-2020 22.3 (13:30) 13.8 (00:00) 18 21.11 (13:30) 17.5 (13:30) 1.6 0 0 1.6 0
01-10-2020 28.2 (18:00) 16.6 (08:50) 22.4 12.5 (19:30) 9.72 (19:30) 0 0 0 0 0

Gráficas

Temp. máximas Temp. mínimas Temp. medias Precipitaciones Rachas de viento máximas Velocidades máximas media en intervalos de 10 minutos

Datos horarios

Fecha y hora oficial Temperatura (ºC) Velocidad del viento (km/h) Dirección del viento Racha (km/h) Dirección de racha Precipitación (mm) Presión (hPa) Tendencia (hPa) Humedad (%)
2020-10-30 23:00:00 18.9 9 Sudeste 14 Sudeste 0 -- -- 47
2020-10-30 22:00:00 19.1 8 Sudeste 17 Sudeste 0 -- -- 48
2020-10-30 21:00:00 19.7 9 Sudeste 15 Sudeste 0 -- -- 46
2020-10-30 20:00:00 20.3 8 Sudeste 17 Sudeste 0 -- -- 44
2020-10-30 19:00:00 22.1 8 Sudeste 15 Sudeste 0 -- -- 39
2020-10-30 18:00:00 24 7 Sudeste 17 Sudeste 0 -- -- 35
2020-10-30 17:00:00 25.6 12 Este 25 Sudeste 0 -- -- 33
2020-10-30 16:00:00 27.6 11 Este 25 Sudeste 0 -- -- 30
2020-10-30 15:00:00 26.2 7 Este 19 Este 0 -- -- 35
2020-10-30 14:00:00 25.8 9 Nordeste 22 Este 0 -- -- 41
2020-10-30 13:00:00 25.1 14 Este 24 Este 0 -- -- 41
2020-10-30 12:00:00 23.5 11 Nordeste 21 Este 0 -- -- 46
2020-10-30 11:00:00 20.7 10 Este 22 Este 0 -- -- 54
2020-10-30 10:00:00 17.3 8 Nordeste 21 Este 0 -- -- 64
2020-10-30 09:00:00 14.2 11 Este 18 Este 0 -- -- 74
2020-10-30 08:00:00 12.8 10 Este 17 Este 0 -- -- 77
2020-10-30 07:00:00 13.5 9 Este 16 Este 0 -- -- 73
2020-10-30 06:00:00 15 10 Este 19 Este 0 -- -- 68
2020-10-30 05:00:00 15.3 13 Este 18 Este 0 -- -- 68
2020-10-30 04:00:00 15 7 Este 16 Este 0 -- -- 68
2020-10-30 03:00:00 15 8 Este 15 Este 0 -- -- 68
2020-10-30 02:00:00 15.3 10 Este 16 Nordeste 0 -- -- 66
2020-10-30 01:00:00 16.6 9 Este 20 Este 0 -- -- 62
2020-10-30 00:00:00 19.2 13 Sudeste 22 Sudeste 0 -- -- 55
2020-10-29 23:00:00 19.1 13 Este 24 Sudeste 0 -- -- 54
2020-10-29 22:00:00 19.3 14 Este 24 Sudeste 0 -- -- 52
2020-10-29 21:00:00 19.8 14 Este 26 Este 0 -- -- 50
2020-10-29 20:00:00 20.8 11 Sudeste 23 Este 0 -- -- 47
2020-10-29 19:00:00 22.2 12 Este 23 Sudeste 0 -- -- 43
2020-10-29 18:00:00 24.9 13 Sudeste 23 Sudeste 0 -- -- 36
2020-10-29 17:00:00 27.2 12 Sudeste 24 Sudeste 0 -- -- 32
2020-10-29 16:00:00 27.4 11 Este 28 Este 0 -- -- 36
2020-10-29 15:00:00 27.2 16 Este 32 Sudeste 0 -- -- 34
2020-10-29 14:00:00 25.8 13 Este 25 Sudeste 0 -- -- 39
2020-10-29 13:00:00 23.7 12 Nordeste 27 Este 0 -- -- 48
2020-10-29 12:00:00 21.8 12 Nordeste 25 Este 0 -- -- 52
2020-10-29 11:00:00 19.2 13 Nordeste 28 Nordeste 0 -- -- 62
2020-10-29 10:00:00 16.4 13 Nordeste 31 Nordeste 0 -- -- 72
2020-10-29 09:00:00 14.1 13 Nordeste 28 Nordeste 0 -- -- 83
2020-10-29 08:00:00 12.4 10 Nordeste 21 Nordeste 0 -- -- 88
2020-10-29 07:00:00 12.7 9 Nordeste 18 Este 0 -- -- 88
2020-10-29 06:00:00 13.1 9 Nordeste 16 Nordeste 0 -- -- 89
2020-10-29 05:00:00 12.9 5 Nordeste 13 Nordeste 0 -- -- 89
2020-10-29 04:00:00 13.6 9 Este 13 Este 0 -- -- 87
2020-10-29 03:00:00 14 5 Este 13 Nordeste 0 -- -- 86
2020-10-29 02:00:00 14.4 4 Nordeste 11 Nordeste 0 -- -- 84
2020-10-29 01:00:00 14.9 5 Nordeste 13 Nordeste 0 -- -- 83
2020-10-29 00:00:00 14.9 6 Nordeste 11 Nordeste 0 -- -- 80
2020-10-28 23:00:00 16 3 Nordeste 9 Nordeste 0 -- -- 74
2020-10-28 22:00:00 17.6 6 Nordeste 12 Nordeste 0 -- -- 68
2020-10-28 21:00:00 17.9 5 Nordeste 9 Nordeste 0 -- -- 66
2020-10-28 20:00:00 18.5 2 Nordeste 4 Nordeste 0 -- -- 64
2020-10-28 19:00:00 20 0 Calma 4 Este 0 -- -- 60
2020-10-28 18:00:00 22.1 4 Este 11 Este 0 -- -- 54
2020-10-28 17:00:00 22.6 4 Nordeste 15 Este 0 -- -- 51
2020-10-28 16:00:00 22.7 5 Nordeste 15 Nordeste 0 -- -- 51
2020-10-28 15:00:00 21.2 8 Nordeste 19 Nordeste 0 -- -- 53
2020-10-28 14:00:00 20.3 9 Nordeste 21 Nordeste 0 -- -- 53
2020-10-28 13:00:00 19.5 9 Nordeste 22 Este 0 -- -- 55
2020-10-28 12:00:00 17.6 10 Nordeste 22 Este 0 -- -- 60
2020-10-28 11:00:00 16.2 10 Este 19 Este 0 -- -- 62
2020-10-28 10:00:00 14.4 9 Nordeste 18 Nordeste 0 -- -- 70
2020-10-28 09:00:00 11.4 5 Nordeste 11 Nordeste 0 -- -- 84
2020-10-28 08:00:00 9.6 8 Este 14 Este 0 -- -- 87
2020-10-28 07:00:00 9.8 4 Este 10 Este 0 -- -- 85
2020-10-28 06:00:00 10.1 7 Este 11 Este 0 -- -- 85
2020-10-28 05:00:00 10 7 Este 9 Este 0 -- -- 85
2020-10-28 04:00:00 10.5 0 Calma 9 Nordeste 0 -- -- 83
2020-10-28 03:00:00 10.9 4 Este 8 Este 0 -- -- 82
2020-10-28 02:00:00 11.3 4 Nordeste 8 Nordeste 0 -- -- 80
2020-10-28 01:00:00 12 4 Nordeste 9 Nordeste 0 -- -- 76
2020-10-28 00:00:00 13.4 4 Nordeste 12 Nordeste 0 -- -- 68
2020-10-27 23:00:00 14.4 5 Nordeste 8 Nordeste 0 -- -- 59
2020-10-27 22:00:00 14.6 4 Nordeste 8 Nordeste 0 -- -- 58
2020-10-27 21:00:00 15 2 Norte 5 Norte 0 -- -- 57
2020-10-27 20:00:00 15.6 4 Norte 6 Noroeste 0 -- -- 54
2020-10-27 19:00:00 17.3 0 Calma 5 Este 0 -- -- 45
2020-10-27 18:00:00 19.1 2 Este 8 Nordeste 0 -- -- 41
2020-10-27 17:00:00 19.5 5 Nordeste 13 Noroeste 0 -- -- 39
2020-10-27 16:00:00 19.3 6 Oeste 18 Noroeste 0 -- -- 39
2020-10-27 15:00:00 19.3 4 Este 12 Noroeste 0 -- -- 41
2020-10-27 14:00:00 18.6 4 Este 12 Este 0 -- -- 43
2020-10-27 13:00:00 17.6 4 Este 11 Este 0 -- -- 51
2020-10-27 12:00:00 16.1 5 Nordeste 13 Nordeste 0 -- -- 59
2020-10-27 11:00:00 14.4 6 Nordeste 15 Nordeste 0 -- -- 65
2020-10-27 10:00:00 12.1 5 Nordeste 13 Nordeste 0 -- -- 75
2020-10-27 09:00:00 9.4 4 Nordeste 10 Nordeste 0 -- -- 86
2020-10-27 08:00:00 8.3 3 Nordeste 5 Nordeste 0 -- -- 85
2020-10-27 07:00:00 8.2 4 Este 8 Este 0 -- -- 85
2020-10-27 06:00:00 8.8 3 Este 7 Sur 0 -- -- 81
2020-10-27 05:00:00 9.6 4 Sur 10 Sur 0 -- -- 77
2020-10-27 04:00:00 10.1 3 Sur 7 Sudeste 0 -- -- 75
2020-10-27 03:00:00 10.2 4 Sudeste 8 Nordeste 0 -- -- 75
2020-10-27 02:00:00 11.5 5 Norte 9 Norte 0 -- -- 69
2020-10-27 01:00:00 12.4 5 Nordeste 9 Norte 0 -- -- 65
2020-10-27 00:00:00 12.6 4 Norte 8 Norte 0 -- -- 63
2020-10-26 23:00:00 12.6 6 Norte 8 Norte 0 -- -- 63
2020-10-26 22:00:00 13.2 4 Norte 11 Norte 0 -- -- 61
2020-10-26 21:00:00 12.6 4 Norte 9 Norte 0 -- -- 63
2020-10-26 20:00:00 14.1 4 Nordeste 8 Nordeste 0 -- -- 54
2020-10-26 19:00:00 15.5 6 Norte 21 Norte 0 -- -- 49
2020-10-26 18:00:00 17.9 13 Norte 23 Norte 0 -- -- 39
2020-10-26 17:00:00 18.4 16 Norte 31 Noroeste 0 -- -- 40
2020-10-26 16:00:00 18.6 16 Noroeste 28 Noroeste 0 -- -- 44
2020-10-26 15:00:00 18.5 16 Noroeste 28 Noroeste 0 -- -- 45
2020-10-26 14:00:00 17.3 15 Noroeste 30 Noroeste 0 -- -- 50
2020-10-26 13:00:00 16.2 17 Noroeste 31 Noroeste 0 -- -- 57
2020-10-26 12:00:00 15.1 21 Noroeste 30 Noroeste 0 -- -- 61
2020-10-26 11:00:00 14.8 18 Noroeste 28 Noroeste 0 -- -- 72
2020-10-26 10:00:00 13.5 15 Noroeste 20 Oeste 0 -- -- 77
2020-10-26 09:00:00 12 11 Oeste 15 Oeste 0 -- -- 86
2020-10-26 08:00:00 10.8 10 Oeste 15 Oeste 0 -- -- 86
2020-10-26 07:00:00 11.1 8 Oeste 17 Noroeste 0 -- -- 86
2020-10-26 06:00:00 11.7 13 Noroeste 26 Noroeste 0 -- -- 86
2020-10-26 05:00:00 12.4 19 Noroeste 30 Noroeste 0 -- -- 85
2020-10-26 04:00:00 13.5 21 Noroeste 28 Oeste 0 -- -- 85
2020-10-26 03:00:00 14.2 19 Noroeste 29 Oeste 0 -- -- 88
2020-10-26 02:00:00 15 23 Oeste 32 Oeste 0 -- -- 89
2020-10-26 01:00:00 15.1 25 Oeste 32 Oeste 0 -- -- 89
2020-10-26 00:00:00 15.5 23 Oeste 53 Oeste 0.2 -- -- 89
2020-10-25 23:00:00 16.5 36 Sudoeste 50 Oeste 0.6 -- -- 95
2020-10-25 22:00:00 16.2 34 Sudoeste 62 Sudoeste 0.2 -- -- 94
2020-10-25 21:00:00 17.4 37 Sudoeste 54 Sudoeste 0 -- -- 82
2020-10-25 20:00:00 17.7 33 Sudoeste 45 Sudoeste 0 -- -- 77
2020-10-25 19:00:00 18.1 32 Sudoeste 48 Sudoeste 0 -- -- 73
2020-10-25 18:00:00 18.5 35 Sudoeste 49 Sudoeste 0 -- -- 70
2020-10-25 17:00:00 19.2 34 Sudoeste 45 Sudoeste 0 -- -- 66
2020-10-25 16:00:00 20.5 30 Sudoeste 40 Sudoeste 0 -- -- 60
2020-10-25 15:00:00 19.8 30 Sudoeste 40 Sudoeste 0 -- -- 61
2020-10-25 14:00:00 19.6 25 Sudoeste 39 Sudoeste 0 -- -- 62
2020-10-25 13:00:00 18.2 19 Sudoeste 27 Oeste 0 -- -- 71
2020-10-25 12:00:00 15.7 11 Oeste 17 Sudoeste 0 -- -- 86
2020-10-25 11:00:00 13.2 11 Oeste 16 Sudoeste 0 -- -- 96
2020-10-25 10:00:00 13 10 Sudoeste 13 Sudoeste 0 -- -- 96
2020-10-25 09:00:00 12 0 Calma 4 Este 0 -- -- 97
2020-10-25 08:00:00 11 0 Calma 4 Este 0.2 -- -- 96
2020-10-25 07:00:00 11.1 0 Calma 8 Sudoeste 0 -- -- 96
2020-10-25 06:00:00 11.5 5 Sudoeste 11 Sur 0 -- -- 95
2020-10-25 05:00:00 11.8 8 Sudoeste 11 Sur 0 -- -- 95
2020-10-25 04:00:00 12 9 Sur 11 Sur 0 -- -- 94
2020-10-25 03:00:00 11.8 9 Sudoeste 13 Sur 0 -- -- 94
2020-10-25 02:00:00 12.6 13 Sur 17 Sur 0 -- -- 93
2020-10-25 01:00:00 13.6 10 Sudoeste 14 Sur 0 -- -- 91
2020-10-25 00:00:00 13.9 11 Sur 15 Sur 0 -- -- 86
2020-10-24 23:00:00 15.4 12 Sudoeste 13 Sudoeste 0 -- -- 78
2020-10-24 22:00:00 16.6 5 Oeste 8 Sudoeste 0 -- -- 74
2020-10-24 21:00:00 16.8 0 Calma 5 Oeste 0 -- -- 75
2020-10-24 20:00:00 17.7 4 Oeste 13 Oeste 0 -- -- 70
2020-10-24 19:00:00 19.5 11 Oeste 18 Oeste 0 -- -- 64
2020-10-24 18:00:00 20.1 9 Noroeste 20 Oeste 0 -- -- 64
2020-10-24 17:00:00 20.6 9 Noroeste 19 Noroeste 0 -- -- 63
2020-10-24 16:00:00 19.7 8 Norte 15 Noroeste 0 -- -- 71
2020-10-24 15:00:00 19.7 9 Noroeste 15 Noroeste 0 -- -- 72
2020-10-24 14:00:00 19.3 4 Norte 12 Norte 0 -- -- 75
2020-10-24 13:00:00 17.5 7 Norte 13 Nordeste 0 -- -- 82
2020-10-24 12:00:00 16.9 4 Nordeste 8 Norte 0 -- -- 85
2020-10-24 11:00:00 15.1 3 Este 9 Este 0 -- -- 94
2020-10-24 10:00:00 14.1 6 Este 11 Este 0 -- -- 95
2020-10-24 09:00:00 14.1 4 Este 9 Este 0 -- -- 95
2020-10-24 08:00:00 13.9 0 Calma 5 Este 0 -- -- 95
2020-10-24 07:00:00 13.4 4 Este 7 Sudeste 0 -- -- 94
2020-10-24 06:00:00 13.1 5 Este 7 Nordeste 0 -- -- 93
2020-10-24 05:00:00 14.1 4 Sur 6 Sur 0 -- -- 93
2020-10-24 04:00:00 14.3 6 Sudoeste 9 Sur 0 -- -- 92
2020-10-24 03:00:00 14.3 7 Sur 10 Sur 0 -- -- 91
2020-10-24 02:00:00 15 5 Sur 9 Sudoeste 0 -- -- 88
2020-10-24 01:00:00 15.1 8 Sudoeste 10 Sudoeste 0 -- -- 88
2020-10-24 00:00:00 15.5 6 Oeste 11 Oeste 0 -- -- 86
2020-10-23 23:00:00 16.3 7 Sur 9 Sur 0 -- -- 82
2020-10-23 22:00:00 16.8 6 Sudoeste 8 Sudoeste 0 -- -- 80
2020-10-23 21:00:00 17.2 3 Este 12 Noroeste 0 -- -- 77
2020-10-23 20:00:00 18.7 7 Norte 14 Sudoeste 0 -- -- 72
2020-10-23 19:00:00 19.9 12 Sudoeste 22 Sudoeste 0 -- -- 62
2020-10-23 18:00:00 21.1 12 Sudoeste 21 Sudoeste 0 -- -- 56
2020-10-23 17:00:00 20.9 12 Sudoeste 20 Noroeste 0 -- -- 56
2020-10-23 16:00:00 20 9 Oeste 23 Noroeste 0 -- -- 61
2020-10-23 15:00:00 19.5 13 Oeste 29 Oeste 0 -- -- 67
2020-10-23 14:00:00 18.4 9 Oeste 16 Oeste 0 -- -- 67
2020-10-23 13:00:00 17 6 Sudoeste 13 Oeste 0 -- -- 89
2020-10-23 12:00:00 15 3 Sudoeste 8 Sudoeste 0 -- -- 97
2020-10-23 11:00:00 13.6 0 Calma 5 Norte 0 -- -- 97
2020-10-23 10:00:00 12.6 0 Calma 5 Nordeste 0.2 -- -- 97
2020-10-23 09:00:00 12.6 3 Sudeste 7 Sur 0 -- -- 96
2020-10-23 08:00:00 12.6 4 Oeste 9 Sur 0 -- -- 96
2020-10-23 07:00:00 13.1 9 Sur 10 Sur 0 -- -- 96
2020-10-23 06:00:00 13.2 7 Sudoeste 10 Sudoeste 0 -- -- 96
2020-10-23 05:00:00 13.4 9 Sur 10 Sur 0.2 -- -- 96
2020-10-23 04:00:00 13.7 5 Sur 10 Sudoeste 0 -- -- 96
2020-10-23 03:00:00 14 8 Sudoeste 11 Sudoeste 0 -- -- 95
2020-10-23 02:00:00 14.1 10 Sudoeste 12 Sur 0 -- -- 95
2020-10-23 01:00:00 14.4 9 Sur 13 Sudoeste 0 -- -- 94
2020-10-23 00:00:00 14.8 13 Sudoeste 21 Sudoeste 0 -- -- 93
2020-10-22 23:00:00 15.3 17 Sudoeste 21 Sudoeste 0 -- -- 93
2020-10-22 22:00:00 15.8 16 Sudoeste 22 Sudoeste 0 -- -- 89
2020-10-22 21:00:00 16.9 13 Sudoeste 28 Sudoeste 0 -- -- 88
2020-10-22 20:00:00 17.8 21 Sudoeste 28 Sudoeste 0 -- -- 86
2020-10-22 19:00:00 18.7 17 Sudoeste 23 Sudoeste 0.2 -- -- 86
2020-10-22 18:00:00 17.9 4 Oeste 11 Oeste 0.4 -- -- 87
2020-10-22 17:00:00 16.9 12 Oeste 31 Oeste 0.8 -- -- 90
2020-10-22 16:00:00 19.8 23 Sudoeste 35 Sudoeste 0 -- -- 80
2020-10-22 15:00:00 19.2 24 Sur 32 Sur 0 -- -- 83
2020-10-22 14:00:00 18.6 19 Sur 25 Sur 0 -- -- 86
2020-10-22 13:00:00 17.2 7 Sudeste 15 Sudeste 0 -- -- 90
2020-10-22 12:00:00 16.5 8 Sudeste 15 Sudeste 0 -- -- 90
2020-10-22 11:00:00 16.2 4 Sudeste 11 Sudeste 0 -- -- 92
2020-10-22 10:00:00 16.1 5 Sudeste 15 Sur 0 -- -- 92
2020-10-22 09:00:00 16 7 Sudeste 16 Sudeste 0.2 -- -- 91
2020-10-22 08:00:00 15.9 6 Sudeste 17 Sudeste 0 -- -- 92
2020-10-22 07:00:00 16.1 8 Sudeste 15 Sudeste 0.4 -- -- 92
2020-10-22 06:00:00 16.6 9 Sur 17 Sur 1.8 -- -- 90
2020-10-22 05:00:00 16.9 8 Sur 18 Sudeste 2.2 -- -- 88
2020-10-22 04:00:00 17.3 10 Sur 18 Sur 0.4 -- -- 87
2020-10-22 03:00:00 17.8 8 Sur 17 Sur 0 -- -- 85
2020-10-22 02:00:00 17.9 13 Sur 23 Sudoeste 0 -- -- 86
2020-10-22 01:00:00 17.8 13 Sudoeste 20 Sur 0 -- -- 87
2020-10-22 00:00:00 18 11 Sur 16 Sur 0 -- -- 85
2020-10-21 23:00:00 17.8 8 Sudoeste 13 Sur 0 -- -- 89
2020-10-21 22:00:00 18.2 9 Sur 14 Sur 0 -- -- 88
2020-10-21 21:00:00 18.5 10 Sur 17 Sur 0 -- -- 85
2020-10-21 20:00:00 19 14 Sudoeste 24 Sur 0 -- -- 86
2020-10-21 19:00:00 19.1 15 Sur 35 Sur 0 -- -- 85
2020-10-21 18:00:00 18.7 13 Sur 47 Sur 0.4 -- -- 83
2020-10-21 17:00:00 22.1 25 Sudoeste 34 Sudoeste 0 -- -- 62
2020-10-21 16:00:00 21.4 25 Sudoeste 36 Sudoeste 0 -- -- 67
2020-10-21 15:00:00 21.3 29 Sudoeste 38 Sudoeste 0.2 -- -- 72
2020-10-21 14:00:00 20.6 23 Sudoeste 35 Sudoeste 0 -- -- 77
2020-10-21 13:00:00 19.6 23 Oeste 33 Sudoeste 0 -- -- 80
2020-10-21 12:00:00 18.8 18 Sudoeste 28 Sudoeste 0 -- -- 88
2020-10-21 11:00:00 18.3 22 Sudoeste 34 Sudoeste 0 -- -- 90
2020-10-21 10:00:00 17.9 25 Sudoeste 33 Sudoeste 0.2 -- -- 91
2020-10-21 09:00:00 17.7 27 Sudoeste 37 Sur 0 -- -- 91
2020-10-21 08:00:00 17.2 22 Sur 34 Sur 0 -- -- 91
2020-10-21 07:00:00 16.7 20 Sur 28 Sur 0 -- -- 91
2020-10-21 06:00:00 16.7 22 Sur 40 Sur 0 -- -- 91
2020-10-21 05:00:00 17.1 21 Sur 31 Sur 0 -- -- 88
2020-10-21 04:00:00 17.2 23 Sur 31 Sur 0 -- -- 89
2020-10-21 03:00:00 17.5 24 Sur 33 Sur 0 -- -- 88
2020-10-21 02:00:00 17.2 23 Sur 37 Sudoeste 0 -- -- 90
2020-10-21 01:00:00 17.4 27 Sudoeste 45 Sudoeste 0 -- -- 91
2020-10-21 00:00:00 17.7 34 Sudoeste 50 Sudoeste 0.2 -- -- 92
2020-10-20 23:00:00 17 23 Sudoeste 94 Sur 5.8 -- -- 93
2020-10-20 22:00:00 19.7 73 Sur 96 Sur 0.8 -- -- 81
2020-10-20 21:00:00 19.3 44 Sur 76 Sur 1 -- -- 81
2020-10-20 20:00:00 22.9 46 Sudoeste 72 Sur 0 -- -- 56
2020-10-20 19:00:00 24.2 54 Sudoeste 91 Sur 0 -- -- 52
2020-10-20 18:00:00 26.3 49 Sudoeste 71 Sudoeste 0 -- -- 37
2020-10-20 17:00:00 26.9 35 Sudoeste 55 Sudoeste 0 -- -- 33
2020-10-20 16:00:00 26.9 16 Sur 53 Sur 0 -- -- 33
2020-10-20 15:00:00 28 41 Sudoeste 55 Sudoeste 0 -- -- 31
2020-10-20 14:00:00 26.9 26 Sudoeste 40 Sudoeste 0 -- -- 36
2020-10-20 13:00:00 25.4 7 Sudeste 19 Sudeste 0 -- -- 35
2020-10-20 12:00:00 24.8 10 Sudeste 20 Sudeste 0 -- -- 36
2020-10-20 11:00:00 22.2 11 Sudeste 17 Sudeste 0 -- -- 41
2020-10-20 10:00:00 20.9 8 Sudeste 15 Sudeste 0 -- -- 42
2020-10-20 09:00:00 20.4 11 Sudeste 17 Sudeste 0 -- -- 43
2020-10-20 08:00:00 20.1 10 Sudeste 23 Sudeste 0 -- -- 43
2020-10-20 07:00:00 19.8 13 Sudeste 20 Este 0 -- -- 44
2020-10-20 06:00:00 19.1 10 Sudeste 17 Sudeste 0 -- -- 47
2020-10-20 05:00:00 19.3 9 Sudeste 14 Sudeste 0 -- -- 42
2020-10-20 04:00:00 19.1 2 Nordeste 7 Nordeste 0 -- -- 52
2020-10-20 03:00:00 19.1 5 Norte 8 Nordeste 0 -- -- 53
2020-10-20 02:00:00 18.8 3 Sudeste 8 Nordeste 0 -- -- 53
2020-10-20 01:00:00 19.3 3 Noroeste 10 Oeste 0 -- -- 52
2020-10-20 00:00:00 19.3 7 Sudoeste 10 Sudoeste 0 -- -- 52
2020-10-19 23:00:00 20.5 5 Sudoeste 12 Sudoeste 0 -- -- 50
2020-10-19 22:00:00 21.6 8 Oeste 17 Oeste 0 -- -- 49
2020-10-19 21:00:00 22.9 14 Oeste 32 Oeste 0 -- -- 42
2020-10-19 20:00:00 24.5 26 Oeste 41 Oeste 0 -- -- 35
2020-10-19 19:00:00 27.1 26 Sudoeste 37 Sudoeste 0 -- -- 29
2020-10-19 18:00:00 29 29 Sudoeste 39 Sudoeste 0 -- -- 26
2020-10-19 17:00:00 30.5 15 Sudoeste 24 Sudoeste 0 -- -- 21
2020-10-19 16:00:00 30.4 13 Sudoeste 22 Sudoeste 0 -- -- 21
2020-10-19 15:00:00 29.6 15 Oeste 26 Sudoeste 0 -- -- 20
2020-10-19 14:00:00 29.1 11 Sudoeste 24 Sur 0 -- -- 20
2020-10-19 13:00:00 28.1 11 Sudeste 29 Sur 0 -- -- 21
2020-10-19 12:00:00 25.4 17 Sudeste 35 Este 0 -- -- 24
2020-10-19 11:00:00 22.6 19 Sudeste 36 Este 0 -- -- 27
2020-10-19 10:00:00 18 5 Nordeste 17 Este 0 -- -- 33
2020-10-19 09:00:00 15.3 9 Este 15 Este 0 -- -- 36
2020-10-19 08:00:00 14.8 7 Este 15 Este 0 -- -- 35
2020-10-19 07:00:00 14.9 7 Este 14 Este 0 -- -- 34
2020-10-19 06:00:00 15 6 Este 12 Nordeste 0 -- -- 35
2020-10-19 05:00:00 16.1 3 Norte 22 Sudeste 0 -- -- 33
2020-10-19 04:00:00 18.1 13 Este 27 Sudeste 0 -- -- 29
2020-10-19 03:00:00 18.2 14 Sudeste 26 Sudeste 0 -- -- 31
2020-10-19 02:00:00 17.9 13 Sudeste 23 Este 0 -- -- 33
2020-10-19 01:00:00 18.6 14 Sudeste 27 Este 0 -- -- 32
2020-10-19 00:00:00 18.5 12 Sudeste 22 Sudeste 0 -- -- 30
2020-10-18 23:00:00 18.6 13 Sudeste 25 Sudeste 0 -- -- 28
2020-10-18 22:00:00 19.4 13 Sudeste 27 Este 0 -- -- 29
2020-10-18 21:00:00 20.7 14 Sudeste 29 Sudeste 0 -- -- 26
2020-10-18 20:00:00 22.3 15 Sudeste 31 Sudeste 0 -- -- 24
2020-10-18 19:00:00 25.8 19 Sudeste 31 Este 0 -- -- 24
2020-10-18 18:00:00 27.5 13 Este 23 Este 0 -- -- 25
2020-10-18 17:00:00 27.7 6 Oeste 19 Nordeste 0 -- -- 25
2020-10-18 16:00:00 27.1 9 Nordeste 21 Nordeste 0 -- -- 27
2020-10-18 15:00:00 25.9 9 Nordeste 24 Norte 0 -- -- 29
2020-10-18 14:00:00 24.6 14 Norte 26 Norte 0 -- -- 32
2020-10-18 13:00:00 22.5 10 Nordeste 21 Nordeste 0 -- -- 35
2020-10-18 12:00:00 21.1 10 Nordeste 41 Este 0 -- -- 38
2020-10-18 11:00:00 16.6 21 Este 35 Este 0 -- -- 46
2020-10-18 10:00:00 12.3 6 Nordeste 16 Este 0 -- -- 59
2020-10-18 09:00:00 8.9 4 Nordeste 12 Nordeste 0 -- -- 70
2020-10-18 08:00:00 8.8 5 Nordeste 11 Este 0 -- -- 69
2020-10-18 07:00:00 9.8 5 Nordeste 10 Nordeste 0 -- -- 68
2020-10-18 06:00:00 10 5 Este 10 Este 0 -- -- 72
2020-10-18 05:00:00 10.5 6 Este 10 Este 0 -- -- 70
2020-10-18 04:00:00 12.4 5 Sudeste 11 Sudeste 0 -- -- 68
2020-10-18 03:00:00 13.9 5 Sudeste 13 Sur 0 -- -- 65
2020-10-18 02:00:00 14 10 Sur 12 Sur 0 -- -- 63
2020-10-18 01:00:00 14.3 9 Sur 13 Sur 0 -- -- 57
2020-10-18 00:00:00 15.3 12 Sur 15 Sudoeste 0 -- -- 46
2020-10-17 23:00:00 17.4 5 Noroeste 6 Noroeste 0 -- -- 43
2020-10-17 22:00:00 18 5 Noroeste 7 Noroeste 0 -- -- 42
2020-10-17 21:00:00 18.8 5 Noroeste 8 Noroeste 0 -- -- 40
2020-10-17 20:00:00 20.3 6 Noroeste 13 Noroeste 0 -- -- 38
2020-10-17 19:00:00 23 6 Noroeste 11 Noroeste 0 -- -- 31
2020-10-17 18:00:00 23.6 4 Norte 16 Sudoeste 0 -- -- 30
2020-10-17 17:00:00 23.2 5 Noroeste 18 Sudoeste 0 -- -- 33
2020-10-17 16:00:00 23.3 8 Sudoeste 18 Sudoeste 0 -- -- 34
2020-10-17 15:00:00 22.4 7 Sudoeste 16 Sudoeste 0 -- -- 35
2020-10-17 14:00:00 21.2 4 Oeste 18 Sudoeste 0 -- -- 39
2020-10-17 13:00:00 19.7 8 Sudoeste 14 Sudoeste 0 -- -- 46
2020-10-17 12:00:00 17.9 4 Sur 13 Este 0 -- -- 55
2020-10-17 11:00:00 15 4 Este 8 Este 0 -- -- 64
2020-10-17 10:00:00 11.4 5 Este 9 Este 0 -- -- 67
2020-10-17 09:00:00 9.5 5 Este 9 Este 0 -- -- 72
2020-10-17 08:00:00 9.8 6 Este 10 Este 0 -- -- 71
2020-10-17 07:00:00 10 7 Este 10 Este 0 -- -- 75
2020-10-17 06:00:00 11.9 0 Calma 9 Sudoeste 0 -- -- 74
2020-10-17 05:00:00 12.3 8 Sudoeste 12 Sudoeste 0 -- -- 73
2020-10-17 04:00:00 12.6 9 Sur 12 Sur 0 -- -- 72
2020-10-17 03:00:00 12.7 10 Sur 12 Sur 0 -- -- 73
2020-10-17 02:00:00 13.1 10 Sudoeste 18 Sur 0 -- -- 70
2020-10-17 01:00:00 13.7 14 Sudoeste 18 Sudoeste 0 -- -- 66
2020-10-17 00:00:00 14.6 14 Sudoeste 17 Sudoeste 0 -- -- 57
2020-10-16 23:00:00 16 12 Sur 16 Sudoeste 0 -- -- 37
2020-10-16 22:00:00 17.6 9 Oeste 12 Oeste 0 -- -- 36
2020-10-16 21:00:00 18.3 9 Oeste 12 Oeste 0 -- -- 34
2020-10-16 20:00:00 20.6 7 Oeste 14 Oeste 0 -- -- 31
2020-10-16 19:00:00 23 6 Oeste 21 Sudoeste 0 -- -- 28
2020-10-16 18:00:00 23.6 9 Oeste 21 Oeste 0 -- -- 28
2020-10-16 17:00:00 23.7 14 Sudoeste 22 Sudoeste 0 -- -- 28
2020-10-16 16:00:00 23.5 5 Oeste 21 Sudoeste 0 -- -- 29
2020-10-16 15:00:00 22.2 4 Noroeste 13 Oeste 0 -- -- 32
2020-10-16 14:00:00 21.4 3 Sudoeste 13 Este 0 -- -- 34
2020-10-16 13:00:00 20.1 4 Este 15 Nordeste 0 -- -- 37
2020-10-16 12:00:00 18.2 9 Nordeste 18 Nordeste 0 -- -- 44
2020-10-16 11:00:00 14.9 6 Nordeste 15 Este 0 -- -- 57
2020-10-16 10:00:00 11.4 5 Nordeste 14 Este 0 -- -- 65
2020-10-16 09:00:00 8.4 5 Nordeste 9 Este 0 -- -- 72
2020-10-16 08:00:00 8.4 5 Este 8 Este 0 -- -- 74
2020-10-16 07:00:00 9.2 4 Este 9 Este 0 -- -- 71
2020-10-16 06:00:00 10.3 5 Este 9 Este 0 -- -- 67
2020-10-16 05:00:00 10.5 6 Este 12 Este 0 -- -- 71
2020-10-16 04:00:00 11.7 4 Este 8 Sudoeste 0 -- -- 67
2020-10-16 03:00:00 12.8 9 Sur 11 Sur 0 -- -- 67
2020-10-16 02:00:00 13 9 Sur 15 Sur 0 -- -- 62
2020-10-16 01:00:00 12.9 9 Sur 15 Sur 0 -- -- 60
2020-10-16 00:00:00 14.2 11 Sudoeste 16 Sudoeste 0 -- -- 48
2020-10-15 23:00:00 15.1 10 Sudoeste 21 Oeste 0 -- -- 43
2020-10-15 22:00:00 16.5 16 Oeste 27 Sudoeste 0 -- -- 41
2020-10-15 21:00:00 17.9 15 Sudoeste 27 Sudoeste 0 -- -- 35
2020-10-15 20:00:00 20 9 Oeste 13 Oeste 0 -- -- 30
2020-10-15 19:00:00 22.6 8 Sudoeste 18 Oeste 0 -- -- 26
2020-10-15 18:00:00 23 7 Oeste 18 Sudoeste 0 -- -- 25
2020-10-15 17:00:00 22.8 12 Noroeste 22 Oeste 0 -- -- 26
2020-10-15 16:00:00 22.6 7 Noroeste 17 Noroeste 0 -- -- 30
2020-10-15 15:00:00 22 9 Norte 26 Noroeste 0 -- -- 30
2020-10-15 14:00:00 20.7 6 Noroeste 13 Noroeste 0 -- -- 35
2020-10-15 13:00:00 19.4 4 Oeste 11 Nordeste 0 -- -- 38
2020-10-15 12:00:00 18.1 4 Nordeste 13 Nordeste 0 -- -- 42
2020-10-15 11:00:00 15.4 5 Este 11 Este 0 -- -- 49
2020-10-15 10:00:00 11.8 0 Calma 5 Sudeste 0 -- -- 68
2020-10-15 09:00:00 10.3 3 Sudeste 9 Sur 0 -- -- 72
2020-10-15 08:00:00 10.6 6 Sur 12 Sur 0 -- -- 73
2020-10-15 07:00:00 10.9 9 Sudoeste 12 Sur 0 -- -- 73
2020-10-15 06:00:00 11 9 Sudoeste 13 Sur 0 -- -- 72
2020-10-15 05:00:00 12.4 6 Sudoeste 12 Sur 0 -- -- 60
2020-10-15 04:00:00 12.9 5 Oeste 10 Sudoeste -- -- -- 54
2020-10-15 03:00:00 12.4 10 Sudoeste 14 Sur 0 -- -- 65
2020-10-15 02:00:00 13.1 13 Sur 16 Sur 0 -- -- 64
2020-10-15 01:00:00 13.9 12 Sur 17 Sudoeste 0 -- -- 58
2020-10-15 00:00:00 14.6 13 Sur 15 Sur 0 -- -- 53
2020-10-14 23:00:00 16.1 8 Noroeste 15 Noroeste 0 -- -- 36
2020-10-14 22:00:00 17.5 13 Noroeste 20 Noroeste 0 -- -- 34
2020-10-14 21:00:00 18.1 9 Noroeste 14 Noroeste 0 -- -- 34
2020-10-14 20:00:00 20.5 13 Noroeste 25 Noroeste 0 -- -- 30
2020-10-14 19:00:00 22.7 23 Noroeste 31 Noroeste 0 -- -- 25
2020-10-14 18:00:00 23.8 21 Noroeste 40 Noroeste 0 -- -- 24
2020-10-14 17:00:00 23.8 21 Oeste 40 Oeste 0 -- -- 26
2020-10-14 16:00:00 23 23 Oeste 45 Noroeste 0 -- -- 32
2020-10-14 15:00:00 22.6 26 Noroeste 41 Noroeste 0 -- -- 32
2020-10-14 14:00:00 20.5 14 Oeste 28 Oeste 0 -- -- 41
2020-10-14 13:00:00 18.7 13 Oeste 25 Oeste 0 -- -- 51
2020-10-14 12:00:00 17.3 7 Sudoeste 15 Oeste 0 -- -- 56
2020-10-14 11:00:00 15.2 5 Sudoeste 9 Sudoeste 0 -- -- 62
2020-10-14 10:00:00 12.7 7 Sudoeste 10 Sudoeste 0 -- -- 70
2020-10-14 09:00:00 11.4 5 Sudoeste 10 Sudoeste 0 -- -- 74
2020-10-14 08:00:00 12.2 9 Sudoeste 11 Sudoeste 0 -- -- 72
2020-10-14 07:00:00 12.9 11 Sudoeste 14 Sudoeste 0 -- -- 71
2020-10-14 06:00:00 13.8 10 Sudoeste 23 Sudoeste 0 -- -- 67
2020-10-14 05:00:00 15.1 14 Sur 21 Sur 0 -- -- 59
2020-10-14 04:00:00 15.1 13 Sudoeste 23 Sudoeste 0 -- -- 54
2020-10-14 03:00:00 15.7 13 Sur 26 Sudoeste 0 -- -- 55
2020-10-14 02:00:00 15.8 13 Sudoeste 21 Sudoeste 0 -- -- 53
2020-10-14 01:00:00 16.4 17 Sudoeste 23 Sudoeste 0 -- -- 50
2020-10-14 00:00:00 16.8 15 Sudoeste 19 Sudoeste 0 -- -- 41
2020-10-13 23:00:00 18.4 12 Sur 21 Sur 0 -- -- 36
2020-10-13 22:00:00 20.6 17 Sudoeste 26 Sudoeste 0 -- -- 32
2020-10-13 21:00:00 21.9 12 Sudoeste 15 Oeste 0 -- -- 29
2020-10-13 20:00:00 24.6 12 Sudoeste 17 Sudoeste 0 -- -- 27
2020-10-13 19:00:00 27.4 9 Sudoeste 15 Oeste 0 -- -- 26
2020-10-13 18:00:00 27.6 7 Oeste 12 Noroeste 0 -- -- 26
2020-10-13 17:00:00 27.5 3 Sur 22 Norte 0 -- -- 27
2020-10-13 16:00:00 26.8 5 Norte 15 Norte 0 -- -- 24
2020-10-13 15:00:00 25.6 5 Nordeste 17 Nordeste 0 -- -- 24
2020-10-13 14:00:00 24.3 6 Nordeste 17 Nordeste 0 -- -- 25
2020-10-13 13:00:00 22.7 8 Este 19 Este 0 -- -- 29
2020-10-13 12:00:00 20.7 8 Nordeste 18 Nordeste 0 -- -- 32
2020-10-13 11:00:00 17.5 8 Nordeste 17 Nordeste 0 -- -- 36
2020-10-13 10:00:00 13.5 6 Nordeste 14 Este 0 -- -- 45
2020-10-13 09:00:00 10 4 Nordeste 11 Este 0 -- -- 52
2020-10-13 08:00:00 10.4 4 Nordeste 12 Este 0 -- -- 49
2020-10-13 07:00:00 11.3 8 Este 12 Este 0 -- -- 47
2020-10-13 06:00:00 12 5 Este 9 Este 0 -- -- 46
2020-10-13 05:00:00 12.1 4 Nordeste 8 Este 0 -- -- 45
2020-10-13 04:00:00 13 3 Este 8 Este 0 -- -- 43
2020-10-13 03:00:00 13.5 3 Nordeste 7 Este 0 -- -- 41
2020-10-13 02:00:00 14.4 4 Nordeste 10 Este 0 -- -- 39
2020-10-13 01:00:00 -- -- -- -- -- -- -- -- --
2020-10-13 00:00:00 16.1 6 Este 10 Este 0 -- -- 36
2020-10-12 23:00:00 17.5 5 Nordeste 9 Nordeste 0 -- -- 34
2020-10-12 22:00:00 18 4 Nordeste 8 Este 0 -- -- 32
2020-10-12 21:00:00 19.2 5 Este 10 Este 0 -- -- 30
2020-10-12 20:00:00 22.1 4 Este 13 Este 0 -- -- 26
2020-10-12 19:00:00 24.9 7 Nordeste 17 Este 0 -- -- 24
2020-10-12 18:00:00 -- -- -- -- -- -- -- -- --
2020-10-12 17:00:00 25.2 9 Este 22 Nordeste 0 -- -- 20
2020-10-12 16:00:00 24.8 13 Nordeste 33 Este 0 -- -- 21
2020-10-12 15:00:00 24 13 Nordeste 36 Nordeste 0 -- -- 24
2020-10-12 14:00:00 22.8 15 Nordeste 36 Este 0 -- -- 27
2020-10-12 13:00:00 21.4 24 Este 44 Este 0 -- -- 29
2020-10-12 12:00:00 19.8 19 Nordeste 39 Nordeste 0 -- -- 32
2020-10-12 11:00:00 17.8 17 Nordeste 37 Este 0 -- -- 37
2020-10-12 10:00:00 15.8 18 Nordeste 33 Nordeste 0 -- -- 40
2020-10-12 09:00:00 14.5 17 Este 32 Este 0 -- -- 42
2020-10-12 08:00:00 14.7 19 Este 31 Este 0 -- -- 41
2020-10-12 07:00:00 14.1 9 Nordeste 20 Nordeste 0 -- -- 42
2020-10-12 06:00:00 15.5 11 Nordeste 25 Nordeste 0 -- -- 38
2020-10-12 05:00:00 16 12 Nordeste 32 Nordeste 0 -- -- 35
2020-10-12 04:00:00 -- -- -- -- -- -- -- -- --
2020-10-12 03:00:00 17.4 11 Nordeste 24 Nordeste 0 -- -- 31
2020-10-12 02:00:00 18 11 Nordeste 24 Nordeste 0 -- -- 30
2020-10-12 01:00:00 18.2 9 Nordeste 20 Nordeste 0 -- -- 29
2020-10-12 00:00:00 19.4 15 Este 26 Este 0 -- -- 28
2020-10-11 23:00:00 19.8 13 Este 21 Este 0 -- -- 33
2020-10-11 22:00:00 21.2 4 Nordeste 16 Nordeste 0 -- -- 41
2020-10-11 21:00:00 -- -- -- -- -- -- -- -- --
2020-10-11 20:00:00 -- -- -- -- -- -- -- -- --
2020-10-11 19:00:00 28.5 5 Este 19 Este 0 -- -- 31
2020-10-11 18:00:00 29 8 Este 23 Nordeste 0 -- -- 31
2020-10-11 17:00:00 29.3 7 Nordeste 19 Nordeste 0 -- -- 32
2020-10-11 16:00:00 28.6 8 Nordeste 22 Este 0 -- -- 36
2020-10-11 15:00:00 27.7 10 Nordeste 23 Este 0 -- -- 41
2020-10-11 14:00:00 25.9 9 Nordeste 16 Este 0 -- -- 49
2020-10-11 13:00:00 23.8 7 Este 19 Este 0 -- -- 62
2020-10-11 12:00:00 20.7 7 Este 15 Este 0 -- -- 74
2020-10-11 11:00:00 17.9 5 Este 11 Este 0 -- -- 92
2020-10-11 10:00:00 16.5 3 Este 6 Nordeste 0 -- -- 95
2020-10-11 09:00:00 16.1 2 Norte 6 Sudoeste 0 -- -- 94
2020-10-11 08:00:00 15.9 4 Sudoeste 10 Sudoeste 0 -- -- 93
2020-10-11 07:00:00 16.5 4 Oeste 8 Sudoeste 0 -- -- 91
2020-10-11 06:00:00 16.6 5 Sur 13 Sur 0 -- -- 89
2020-10-11 05:00:00 17.1 10 Sur 14 Sudoeste 0 -- -- 84
2020-10-11 04:00:00 17.3 10 Sur 18 Sudoeste 0 -- -- 81
2020-10-11 03:00:00 18 15 Sudoeste 21 Sudoeste 0 -- -- 80
2020-10-11 02:00:00 18.3 18 Sudoeste 22 Sudoeste 0 -- -- 75
2020-10-11 01:00:00 18.9 18 Sudoeste 24 Sudoeste 0 -- -- 71
2020-10-11 00:00:00 20 15 Sudoeste 21 Sudoeste 0 -- -- 61
2020-10-10 23:00:00 21.5 11 Sudoeste 20 Sudoeste 0 -- -- 55
2020-10-10 22:00:00 23.4 15 Sudoeste 25 Sudoeste 0 -- -- 49
2020-10-10 21:00:00 25 18 Sudoeste 30 Sudoeste 0 -- -- 48
2020-10-10 20:00:00 27.1 19 Sudoeste 24 Sudoeste 0 -- -- 42
2020-10-10 19:00:00 29.3 17 Sudoeste 26 Sudoeste 0 -- -- 30
2020-10-10 18:00:00 30.6 12 Oeste 23 Oeste 0 -- -- 30
2020-10-10 17:00:00 30.8 13 Oeste 22 Sudoeste 0 -- -- 29
2020-10-10 16:00:00 30.6 10 Oeste 19 Sudoeste 0 -- -- 29
2020-10-10 15:00:00 30 8 Oeste 16 Sudeste 0 -- -- 32
2020-10-10 14:00:00 29.2 5 Sur 13 Sudoeste 0 -- -- 35
2020-10-10 13:00:00 27.3 4 Este 14 Este 0 -- -- 40
2020-10-10 12:00:00 24.4 6 Este 14 Este 0 -- -- 49
2020-10-10 11:00:00 21.5 4 Nordeste 10 Norte 0 -- -- 55
2020-10-10 10:00:00 18.1 4 Nordeste 8 Nordeste 0 -- -- 61
2020-10-10 09:00:00 16.7 6 Sudeste 9 Sudeste 0 -- -- 67
2020-10-10 08:00:00 16.3 5 Sudeste 9 Este 0 -- -- 65
2020-10-10 07:00:00 16.7 4 Este 6 Sudeste 0 -- -- 62
2020-10-10 06:00:00 16.9 6 Sudeste 9 Este 0 -- -- 64
2020-10-10 05:00:00 17.9 2 Sur 7 Sur 0 -- -- 60
2020-10-10 04:00:00 18.4 6 Sur 10 Sur 0 -- -- 58
2020-10-10 03:00:00 18.5 9 Sudoeste 17 Sudoeste 0 -- -- 53
2020-10-10 02:00:00 19.3 14 Sur 21 Sur 0 -- -- 53
2020-10-10 01:00:00 20 18 Sur 21 Sur 0 -- -- 48
2020-10-10 00:00:00 21.9 14 Sur 17 Sur 0 -- -- 42
2020-10-09 23:00:00 23.4 6 Noroeste 9 Oeste 0 -- -- 41
2020-10-09 22:00:00 24.8 2 Sudoeste 10 Sur 0 -- -- 35
2020-10-09 21:00:00 25.9 4 Este 6 Nordeste 0 -- -- 37
2020-10-09 20:00:00 28.8 2 Nordeste 8 Nordeste 0 -- -- 31
2020-10-09 19:00:00 30.8 4 Nordeste 10 Nordeste 0 -- -- 27
2020-10-09 18:00:00 30.6 4 Nordeste 12 Este 0 -- -- 28
2020-10-09 17:00:00 31 5 Este 15 Este 0 -- -- 28
2020-10-09 16:00:00 30.7 8 Este 25 Este 0 -- -- 29
2020-10-09 15:00:00 30.8 7 Este 18 Sudeste 0 -- -- 29
2020-10-09 14:00:00 29.6 8 Este 14 Sudeste 0 -- -- 32
2020-10-09 13:00:00 27.5 9 Este 19 Sudeste 0 -- -- 36
2020-10-09 12:00:00 24.4 5 Este 14 Este 0 -- -- 45
2020-10-09 11:00:00 21 5 Nordeste 11 Nordeste 0 -- -- 51
2020-10-09 10:00:00 18.3 5 Nordeste 13 Este 0 -- -- 57
2020-10-09 09:00:00 15.9 9 Este 13 Este 0 -- -- 58
2020-10-09 08:00:00 15.7 7 Este 12 Este 0 -- -- 57
2020-10-09 07:00:00 17.6 5 Nordeste 10 Nordeste 0 -- -- 53
2020-10-09 06:00:00 20.2 5 Sur 11 Sur 0 -- -- 48
2020-10-09 05:00:00 20.1 8 Sur 14 Sudeste 0 -- -- 48
2020-10-09 04:00:00 20.4 7 Sur 15 Sur 0 -- -- 49
2020-10-09 03:00:00 20.7 11 Sur 19 Sur 0 -- -- 49
2020-10-09 02:00:00 20.9 14 Sur 17 Sur 0 -- -- 48
2020-10-09 01:00:00 21.5 13 Sur 16 Sur 0 -- -- 47
2020-10-09 00:00:00 21.8 15 Sudoeste 17 Sur 0 -- -- 46
2020-10-08 23:00:00 23.6 16 Sur 25 Sur 0 -- -- 41
2020-10-08 22:00:00 24.7 12 Sudeste 22 Sudeste 0 -- -- 36
2020-10-08 21:00:00 26 11 Este 19 Este 0 -- -- 32
2020-10-08 20:00:00 28.6 11 Este 22 Sudeste 0 -- -- 28
2020-10-08 19:00:00 31.6 10 Este 22 Este 0 -- -- 26
2020-10-08 18:00:00 32.8 12 Este 27 Nordeste 0 -- -- 25
2020-10-08 17:00:00 33.4 13 Este 28 Este 0 -- -- 25
2020-10-08 16:00:00 33.1 15 Este 27 Este 0 -- -- 25
2020-10-08 15:00:00 31.8 13 Sudeste 32 Este 0 -- -- 27
2020-10-08 14:00:00 31.1 14 Este 31 Este 0 -- -- 28
2020-10-08 13:00:00 29.6 19 Este 32 Este 0 -- -- 31
2020-10-08 12:00:00 28.3 18 Este 33 Este 0 -- -- 33
2020-10-08 11:00:00 25 12 Este 22 Este 0 -- -- 40
2020-10-08 10:00:00 20.1 11 Este 16 Este 0 -- -- 48
2020-10-08 09:00:00 16.7 7 Este 15 Este 0 -- -- 55
2020-10-08 08:00:00 15.6 6 Nordeste 12 Este 0 -- -- 56
2020-10-08 07:00:00 16.5 8 Este 13 Este 0 -- -- 54
2020-10-08 06:00:00 16.9 6 Este 12 Nordeste 0 -- -- 52
2020-10-08 05:00:00 17.3 6 Este 12 Este 0 -- -- 50
2020-10-08 04:00:00 18.3 8 Este 13 Sudeste 0 -- -- 48
2020-10-08 03:00:00 18.5 7 Este 11 Este 0 -- -- 47
2020-10-08 02:00:00 19.6 5 Este 9 Este 0 -- -- 44
2020-10-08 01:00:00 21.8 3 Nordeste 24 Sudeste 0 -- -- 39
2020-10-08 00:00:00 23.7 15 Sudeste 23 Sudeste 0 -- -- 35
2020-10-07 23:00:00 24.4 12 Sudeste 20 Este 0 -- -- 34
2020-10-07 22:00:00 24.5 8 Este 17 Este 0 -- -- 34
2020-10-07 21:00:00 26.1 4 Este 8 Nordeste 0 -- -- 33
2020-10-07 20:00:00 29.1 4 Nordeste 13 Nordeste 0 -- -- 29
2020-10-07 19:00:00 31.8 4 Nordeste 14 Norte 0 -- -- 26
2020-10-07 18:00:00 32.5 7 Nordeste 17 Nordeste 0 -- -- 25
2020-10-07 17:00:00 32.5 9 Nordeste 19 Este 0 -- -- 26
2020-10-07 16:00:00 32.3 9 Nordeste 21 Este 0 -- -- 27
2020-10-07 15:00:00 31.4 11 Nordeste 24 Nordeste 0 -- -- 30
2020-10-07 14:00:00 29.9 11 Nordeste 24 Nordeste 0 -- -- 33
2020-10-07 13:00:00 27.6 9 Nordeste 23 Este 0 -- -- 36
2020-10-07 12:00:00 25 13 Nordeste 26 Este 0 -- -- 41
2020-10-07 11:00:00 21.7 11 Nordeste 23 Nordeste 0 -- -- 48
2020-10-07 10:00:00 18.6 7 Nordeste 20 Este 0 -- -- 55
2020-10-07 09:00:00 16 7 Nordeste 16 Nordeste 0 -- -- 64
2020-10-07 08:00:00 15.1 10 Este 13 Este 0 -- -- 63
2020-10-07 07:00:00 15.7 4 Nordeste 12 Nordeste 0 -- -- 60
2020-10-07 06:00:00 16.6 8 Este 12 Este 0 -- -- 55
2020-10-07 05:00:00 18.5 4 Nordeste 9 Nordeste 0 -- -- 50
2020-10-07 04:00:00 18.7 3 Este 7 Este 0 -- -- 47
2020-10-07 03:00:00 19.1 3 Nordeste 8 Este 0 -- -- 47
2020-10-07 02:00:00 20.2 6 Este 13 Sudeste 0 -- -- 44
2020-10-07 01:00:00 22.3 3 Sudeste 6 Sur 0 -- -- 43
2020-10-07 00:00:00 22.2 4 Sudeste 6 Nordeste 0 -- -- 45
2020-10-06 23:00:00 22.9 4 Nordeste 6 Nordeste 0 -- -- 49
2020-10-06 22:00:00 23.5 3 Este 6 Este 0 -- -- 48
2020-10-06 21:00:00 24.8 2 Este 4 Este 0 -- -- 45
2020-10-06 20:00:00 27.1 0 Calma 9 Norte 0 -- -- 41
2020-10-06 19:00:00 28.6 3 Este 13 Norte 0 -- -- 38
2020-10-06 18:00:00 28.7 6 Este 16 Nordeste 0 -- -- 37
2020-10-06 17:00:00 28.1 7 Nordeste 16 Este 0 -- -- 37
2020-10-06 16:00:00 27.6 8 Nordeste 21 Este 0 -- -- 38
2020-10-06 15:00:00 26.4 10 Este 19 Este 0 -- -- 40
2020-10-06 14:00:00 25.3 8 Nordeste 17 Este 0 -- -- 39
2020-10-06 13:00:00 24.1 10 Este 21 Nordeste 0 -- -- 41
2020-10-06 12:00:00 22 8 Nordeste 20 Nordeste 0 -- -- 42
2020-10-06 11:00:00 19.3 8 Nordeste 20 Este 0 -- -- 49
2020-10-06 10:00:00 15.4 10 Este 17 Este 0 -- -- 59
2020-10-06 09:00:00 12.8 10 Este 16 Este 0 -- -- 66
2020-10-06 08:00:00 12.6 8 Este 12 Este 0 -- -- 64
2020-10-06 07:00:00 13.3 5 Este 10 Este 0 -- -- 62
2020-10-06 06:00:00 13.5 6 Este 9 Este 0 -- -- 59
2020-10-06 05:00:00 13.6 5 Este 12 Este 0 -- -- 58
2020-10-06 04:00:00 15.3 5 Nordeste 9 Nordeste 0 -- -- 52
2020-10-06 03:00:00 16.3 6 Nordeste 13 Norte 0 -- -- 49
2020-10-06 02:00:00 17.2 7 Norte 11 Nordeste 0 -- -- 46
2020-10-06 01:00:00 17.7 5 Norte 10 Norte 0 -- -- 44
2020-10-06 00:00:00 18 6 Norte 10 Norte 0 -- -- 44
2020-10-05 23:00:00 18.9 7 Norte 14 Norte 0 -- -- 42
2020-10-05 22:00:00 19.6 5 Norte 13 Norte 0 -- -- 41
2020-10-05 21:00:00 21.1 8 Norte 14 Norte 0 -- -- 39
2020-10-05 20:00:00 23.2 9 Norte 18 Noroeste 0 -- -- 35
2020-10-05 19:00:00 24.8 10 Noroeste 20 Norte 0 -- -- 32
2020-10-05 18:00:00 24.7 10 Noroeste 26 Noroeste 0 -- -- 33
2020-10-05 17:00:00 24.8 9 Norte 36 Noroeste 0 -- -- 32
2020-10-05 16:00:00 24 14 Noroeste 29 Noroeste 0 -- -- 34
2020-10-05 15:00:00 23.3 14 Noroeste 29 Norte 0 -- -- 36
2020-10-05 14:00:00 22 12 Norte 24 Norte 0 -- -- 40
2020-10-05 13:00:00 20.4 10 Norte 21 Norte 0 -- -- 45
2020-10-05 12:00:00 18.7 13 Norte 22 Norte 0 -- -- 49
2020-10-05 11:00:00 16.6 4 Norte 10 Norte 0 -- -- 57
2020-10-05 10:00:00 14 0 Calma 6 Noroeste 0 -- -- 67
2020-10-05 09:00:00 11.9 3 Nordeste 7 Noroeste 0 -- -- 73
2020-10-05 08:00:00 11.9 5 Noroeste 8 Norte 0 -- -- 72
2020-10-05 07:00:00 12.2 5 Noroeste 10 Noroeste 0 -- -- 70
2020-10-05 06:00:00 12.7 6 Noroeste 13 Noroeste 0 -- -- 69
2020-10-05 05:00:00 13.5 9 Noroeste 18 Noroeste 0 -- -- 65
2020-10-05 04:00:00 14.1 12 Noroeste 15 Noroeste 0 -- -- 64
2020-10-05 03:00:00 14.9 9 Noroeste 14 Noroeste 0 -- -- 64
2020-10-05 02:00:00 15.5 8 Noroeste 12 Noroeste 0 -- -- 66
2020-10-05 01:00:00 17.2 4 Noroeste 8 Sudoeste 0 -- -- 64
2020-10-05 00:00:00 17.6 6 Sudoeste 9 Sudoeste 0 -- -- 62
2020-10-04 23:00:00 18.1 6 Oeste 14 Noroeste 0 -- -- 61
2020-10-04 22:00:00 19.3 12 Oeste 21 Oeste 0 -- -- 57
2020-10-04 21:00:00 20 16 Oeste 40 Sudoeste 0 -- -- 63
2020-10-04 20:00:00 20.2 33 Sudoeste 40 Sudoeste 0 -- -- 60
2020-10-04 19:00:00 23.5 22 Oeste 37 Oeste 0 -- -- 46
2020-10-04 18:00:00 24.4 27 Oeste 41 Oeste 0 -- -- 43
2020-10-04 17:00:00 23.9 22 Oeste 37 Oeste 0 -- -- 43
2020-10-04 16:00:00 23.8 22 Oeste 35 Sudoeste 0 -- -- 40
2020-10-04 15:00:00 22.5 20 Oeste 32 Oeste 0 -- -- 40
2020-10-04 14:00:00 21.3 19 Oeste 31 Sudoeste 0 -- -- 43
2020-10-04 13:00:00 19.8 14 Sudoeste 21 Sur 0 -- -- 48
2020-10-04 12:00:00 17.8 8 Sudoeste 18 Sudoeste 0 -- -- 54
2020-10-04 11:00:00 15.7 8 Sur 12 Sudoeste 0 -- -- 65
2020-10-04 10:00:00 13.5 5 Sur 9 Sur 0 -- -- 77
2020-10-04 09:00:00 11.7 4 Sudeste 9 Sudeste 0 -- -- 84
2020-10-04 08:00:00 11.9 0 Calma 4 Sur 0 -- -- 76
2020-10-04 07:00:00 12.1 2 Sudoeste 5 Sur 0 -- -- 75
2020-10-04 06:00:00 12.5 3 Oeste 7 Sur 0 -- -- 76
2020-10-04 05:00:00 12.6 8 Sur 11 Sur 0 -- -- 82
2020-10-04 04:00:00 12.5 10 Sudoeste 13 Sur 0 -- -- 82
2020-10-04 03:00:00 13.1 9 Sudoeste 14 Sudoeste 0 -- -- 80
2020-10-04 02:00:00 13.3 10 Sur 17 Sur 0 -- -- 77
2020-10-04 01:00:00 13.6 13 Sur 14 Sur 0 -- -- 70
2020-10-04 00:00:00 15.1 9 Sudoeste 17 Sudoeste 0 -- -- 62
2020-10-03 23:00:00 15.8 9 Sudoeste 16 Sur 0 -- -- 54
2020-10-03 22:00:00 17 8 Noroeste 17 Noroeste 0 -- -- 45
2020-10-03 21:00:00 18.5 13 Oeste 19 Oeste 0 -- -- 39
2020-10-03 20:00:00 20.4 14 Oeste 19 Oeste 0 -- -- 33
2020-10-03 19:00:00 22.1 17 Noroeste 27 Noroeste 0 -- -- 28
2020-10-03 18:00:00 22.7 19 Noroeste 31 Oeste 0 -- -- 26
2020-10-03 17:00:00 22.4 11 Noroeste 32 Oeste 0 -- -- 28
2020-10-03 16:00:00 22.2 17 Oeste 33 Oeste 0 -- -- 28
2020-10-03 15:00:00 21 17 Noroeste 29 Noroeste 0 -- -- 30
2020-10-03 14:00:00 19.7 17 Noroeste 28 Oeste 0 -- -- 37
2020-10-03 13:00:00 17.5 11 Oeste 23 Noroeste 0 -- -- 50
2020-10-03 12:00:00 16.1 11 Noroeste 24 Noroeste 0 -- -- 56
2020-10-03 11:00:00 14.3 12 Oeste 22 Oeste 0 -- -- 66
2020-10-03 10:00:00 11.3 13 Sudoeste 16 Sudoeste 0 -- -- 77
2020-10-03 09:00:00 9.5 9 Sudoeste 13 Sudoeste 0 -- -- 80
2020-10-03 08:00:00 9.8 6 Sudoeste 12 Oeste 0 -- -- 78
2020-10-03 07:00:00 9.8 7 Noroeste 17 Oeste 0 -- -- 78
2020-10-03 06:00:00 10.1 10 Sudoeste 15 Sudoeste 0 -- -- 75
2020-10-03 05:00:00 10.4 10 Oeste 16 Oeste 0 -- -- 75
2020-10-03 04:00:00 10.9 11 Oeste 17 Sudoeste 0 -- -- 72
2020-10-03 03:00:00 11.6 13 Sudoeste 19 Oeste 0 -- -- 69
2020-10-03 02:00:00 12.8 11 Oeste 33 Noroeste 0 -- -- 65
2020-10-03 01:00:00 13.3 25 Noroeste 32 Oeste 0 -- -- 62
2020-10-03 00:00:00 13.8 24 Noroeste 41 Noroeste 0 -- -- 61
2020-10-02 23:00:00 14.7 25 Noroeste 33 Oeste 0 -- -- 61
2020-10-02 22:00:00 15.1 18 Noroeste 39 Noroeste 0 -- -- 64
2020-10-02 21:00:00 15.8 23 Noroeste 31 Noroeste 0 -- -- 63
2020-10-02 20:00:00 16.9 21 Noroeste 53 Noroeste 0 -- -- 64
2020-10-02 19:00:00 17.5 42 Noroeste 65 Noroeste 0 -- -- 63
2020-10-02 18:00:00 19.1 41 Noroeste 75 Noroeste 0.2 -- -- 71
2020-10-02 17:00:00 21.4 45 Oeste 69 Oeste 0 -- -- 71
2020-10-02 16:00:00 21.2 43 Oeste 68 Sudoeste 0.2 -- -- 76
2020-10-02 15:00:00 20.5 50 Oeste 68 Sudoeste 0.6 -- -- 82
2020-10-02 14:00:00 19.1 47 Oeste 76 Sudoeste 0.6 -- -- 87
2020-10-02 13:00:00 21.2 57 Sudoeste 72 Sudoeste 0 -- -- 69
2020-10-02 12:00:00 19.7 47 Sudoeste 64 Sudoeste 0 -- -- 73
2020-10-02 11:00:00 18 47 Sudoeste 57 Sudoeste 0 -- -- 77
2020-10-02 10:00:00 16.7 33 Sudoeste 44 Sudoeste 0 -- -- 80
2020-10-02 09:00:00 15.5 33 Sudoeste 42 Sudoeste 0 -- -- 81
2020-10-02 08:00:00 14.8 25 Sudoeste 32 Sudoeste 0 -- -- 80
2020-10-02 07:00:00 15.4 22 Sudoeste 27 Sudoeste 0 -- -- 75
2020-10-02 06:00:00 16.3 20 Oeste 25 Oeste 0 -- -- 69
2020-10-02 05:00:00 17 16 Oeste 31 Oeste 0 -- -- 66
2020-10-02 04:00:00 17.9 20 Oeste 28 Oeste 0 -- -- 62
2020-10-02 03:00:00 18.3 14 Oeste 22 Oeste 0 -- -- 61
2020-10-02 02:00:00 18.3 16 Oeste 21 Oeste 0 -- -- 64
2020-10-02 01:00:00 18.4 12 Sudoeste 14 Sudoeste 0 -- -- 70
2020-10-02 00:00:00 20.2 12 Oeste 23 Oeste 0 -- -- 63
2020-10-01 23:00:00 21.4 15 Oeste 22 Oeste 0 -- -- 58
2020-10-01 22:00:00 22.3 14 Oeste 28 Oeste 0 -- -- 53
2020-10-01 21:00:00 23.7 18 Oeste 43 Oeste 0 -- -- 50
2020-10-01 20:00:00 24.4 32 Sudoeste 45 Sudoeste 0 -- -- 55
2020-10-01 19:00:00 27.2 25 Sudoeste 37 Sudoeste 0 -- -- 40
2020-10-01 18:00:00 28.2 20 Oeste 32 Oeste 0 -- -- 35
2020-10-01 17:00:00 27.9 16 Oeste 36 Oeste 0 -- -- 34
2020-10-01 16:00:00 27.3 8 Oeste 25 Oeste 0 -- -- 34
2020-10-01 15:00:00 25.9 14 Oeste 27 Oeste 0 -- -- 35
2020-10-01 14:00:00 24.5 12 Oeste 20 Oeste 0 -- -- 42
2020-10-01 13:00:00 22.4 10 Oeste 19 Oeste 0 -- -- 55
2020-10-01 12:00:00 20 11 Oeste 19 Oeste 0 -- -- 75
2020-10-01 11:00:00 18.2 13 Oeste 19 Sudoeste 0 -- -- 84
2020-10-01 10:00:00 17.2 16 Sudoeste 22 Sudoeste 0 -- -- 91
2020-10-01 09:00:00 16.7 9 Sudoeste 18 Sudoeste 0 -- -- 94
2020-10-01 08:00:00 16.8 16 Sudoeste 19 Sudoeste 0 -- -- 94
2020-10-01 07:00:00 17 12 Sudoeste 17 Sudoeste 0 -- -- 95
2020-10-01 06:00:00 17.3 12 Sudoeste 15 Sudoeste 0 -- -- 94
2020-10-01 05:00:00 17.3 11 Sudoeste 19 Sudoeste 0 -- -- 92
2020-10-01 04:00:00 17.6 13 Sudoeste 16 Sudoeste 0 -- -- 89
2020-10-01 03:00:00 18.2 12 Sudoeste 16 Sudoeste 0 -- -- 86
2020-10-01 02:00:00 18.7 14 Sudoeste 20 Sudoeste 0 -- -- 81
2020-10-01 01:00:00 19.7 17 Sudoeste 21 Sudoeste 0 -- -- 78
2020-10-01 00:00:00 20.8 14 Sudoeste 21 Sudoeste 0 -- -- 73